createdAt,value
2022-12-12T00:00:23.579Z,100349.91
2022-12-12T00:00:58.606Z,100351.77
2022-12-12T00:01:27.971Z,100350.41
2022-12-12T00:02:00.127Z,100350.45
2022-12-12T00:02:32.423Z,100350.78
2022-12-12T00:03:05.529Z,100349.69
2022-12-12T00:03:37.712Z,100350.02
2022-12-12T00:04:09.810Z,100351.66
2022-12-12T00:04:42.029Z,100350.52
2022-12-12T00:05:14.557Z,100351.42
2022-12-12T00:05:46.405Z,100352.41
2022-12-12T00:06:18.608Z,100351.66
2022-12-12T00:06:50.757Z,100352.27
2022-12-12T00:07:22.995Z,100351.98
2022-12-12T00:07:55.200Z,100351.77
2022-12-12T00:08:27.353Z,100352.27
2022-12-12T00:08:59.569Z,100351.60
2022-12-12T00:09:31.798Z,100351.68
2022-12-12T00:10:04.058Z,100352.45
2022-12-12T00:10:36.282Z,100353.65
2022-12-12T00:11:08.444Z,100355.99
2022-12-12T00:11:40.807Z,100356.67
2022-12-12T00:12:12.985Z,100358.04
2022-12-12T00:12:45.156Z,100357.55
2022-12-12T00:13:17.301Z,100357.48
2022-12-12T00:13:49.644Z,100359.53
2022-12-12T00:14:21.813Z,100358.60
2022-12-12T00:14:53.974Z,100358.33
2022-12-12T00:15:26.154Z,100358.02
2022-12-12T00:15:58.360Z,100358.19
2022-12-12T00:16:30.534Z,100358.37
2022-12-12T00:17:02.813Z,100357.82
2022-12-12T00:17:35.054Z,100358.53
2022-12-12T00:18:07.269Z,100358.70
2022-12-12T00:18:39.436Z,100358.53
2022-12-12T00:19:11.614Z,100358.86
2022-12-12T00:19:43.772Z,100359.68
2022-12-12T00:20:16.079Z,100360.44
2022-12-12T00:20:48.340Z,100357.52
2022-12-12T00:21:20.508Z,100359.45
2022-12-12T00:21:52.766Z,100358.22
2022-12-12T00:22:24.978Z,100356.59
2022-12-12T00:22:57.178Z,100356.50
2022-12-12T00:23:29.354Z,100356.18
2022-12-12T00:24:01.521Z,100356.34
2022-12-12T00:24:33.767Z,100356.07
2022-12-12T00:25:05.929Z,100354.10
2022-12-12T00:25:38.166Z,100353.72
2022-12-12T00:26:10.451Z,100351.83
2022-12-12T00:26:42.648Z,100350.84
2022-12-12T00:27:14.918Z,100350.84
2022-12-12T00:27:47.038Z,100350.00
2022-12-12T00:28:19.185Z,100349.56
2022-12-12T00:28:51.358Z,100348.64
2022-12-12T00:29:23.686Z,100349.27
2022-12-12T00:29:55.839Z,100348.62
2022-12-12T00:30:28.042Z,100348.78
2022-12-12T00:31:00.280Z,100348.29
2022-12-12T00:31:32.447Z,100348.73
2022-12-12T00:32:04.567Z,100347.58
2022-12-12T00:32:36.783Z,100348.19
2022-12-12T00:33:08.969Z,100348.55
2022-12-12T00:33:41.154Z,100347.34
2022-12-12T00:34:13.302Z,100346.83
2022-12-12T00:34:45.492Z,100347.60
2022-12-12T00:35:17.635Z,100345.41
2022-12-12T00:35:49.889Z,100345.88
2022-12-12T00:36:22.047Z,100346.38
2022-12-12T00:36:54.228Z,100345.72
2022-12-12T00:37:26.415Z,100347.47
2022-12-12T00:37:58.590Z,100347.33
2022-12-12T00:38:30.889Z,100347.92
2022-12-12T00:39:03.078Z,100349.45
2022-12-12T00:39:35.303Z,100349.13
2022-12-12T00:40:07.469Z,100348.69
2022-12-12T00:40:39.674Z,100349.02
2022-12-12T00:41:11.850Z,100350.66
2022-12-12T00:41:44.043Z,100350.91
2022-12-12T00:42:16.203Z,100351.78
2022-12-12T00:42:48.372Z,100353.31
2022-12-12T00:43:20.524Z,100353.54
2022-12-12T00:43:52.672Z,100352.28
2022-12-12T00:44:24.817Z,100352.50
2022-12-12T00:44:56.999Z,100354.14
2022-12-12T00:45:29.150Z,100353.32
2022-12-12T00:46:01.370Z,100351.79
2022-12-12T00:46:33.545Z,100351.84
2022-12-12T00:47:05.726Z,100351.19
2022-12-12T00:47:37.911Z,100351.68
2022-12-12T00:48:10.067Z,100349.27
2022-12-12T00:48:42.252Z,100349.77
2022-12-12T00:49:14.407Z,100352.17
2022-12-12T00:49:46.605Z,100351.23
2022-12-12T00:50:18.789Z,100352.30
2022-12-12T00:50:51.035Z,100351.59
2022-12-12T00:51:23.230Z,100353.17
2022-12-12T00:51:55.405Z,100353.22
2022-12-12T00:52:27.589Z,100352.64
2022-12-12T00:52:59.793Z,100353.98
2022-12-12T00:53:31.966Z,100353.59
2022-12-12T00:54:04.132Z,100353.16
2022-12-12T00:54:36.303Z,100353.65
2022-12-12T00:55:08.464Z,100354.30
2022-12-12T00:55:40.635Z,100354.47
2022-12-12T00:56:12.825Z,100357.75
2022-12-12T00:56:45.075Z,100357.09
2022-12-12T00:57:17.321Z,100358.24
2022-12-12T00:57:49.487Z,100357.70
2022-12-12T00:58:21.676Z,100359.11
2022-12-12T00:58:53.880Z,100359.16
2022-12-12T00:59:26.033Z,100359.35
2022-12-12T00:59:58.239Z,100357.82
2022-12-12T01:00:30.432Z,100359.95
2022-12-12T01:01:02.628Z,100359.63
2022-12-12T01:01:34.921Z,100359.69
2022-12-12T01:02:07.129Z,100359.84
2022-12-12T01:02:39.356Z,100360.34
2022-12-12T01:03:11.600Z,100360.34
2022-12-12T01:03:43.691Z,100361.89
2022-12-12T01:04:15.868Z,100362.12
2022-12-12T01:04:48.021Z,100363.81
2022-12-12T01:05:20.261Z,100364.20
2022-12-12T01:05:52.473Z,100364.58
2022-12-12T01:06:24.671Z,100366.20
2022-12-12T01:06:56.897Z,100364.61
2022-12-12T01:07:29.054Z,100364.94
2022-12-12T01:08:01.269Z,100365.88
2022-12-12T01:08:33.567Z,100366.11
2022-12-12T01:09:05.834Z,100365.51
2022-12-12T01:09:38.019Z,100366.33
2022-12-12T01:10:10.218Z,100367.53
2022-12-12T01:10:42.409Z,100367.97
2022-12-12T01:11:14.544Z,100368.56
2022-12-12T01:11:47.068Z,100368.34
2022-12-12T01:12:19.249Z,100369.88
2022-12-12T01:12:51.424Z,100370.19
2022-12-12T01:13:23.765Z,100370.68
2022-12-12T01:13:55.925Z,100371.66
2022-12-12T01:14:28.099Z,100371.98
2022-12-12T01:15:00.277Z,100374.18
2022-12-12T01:15:32.486Z,100374.89
2022-12-12T01:16:04.709Z,100375.63
2022-12-12T01:16:36.849Z,100376.27
2022-12-12T01:17:09.070Z,100375.13
2022-12-12T01:17:41.267Z,100376.61
2022-12-12T01:18:13.467Z,100376.69
2022-12-12T01:18:45.705Z,100377.42
2022-12-12T01:19:17.878Z,100377.37
2022-12-12T01:19:50.080Z,100376.83
2022-12-12T01:20:22.234Z,100376.44
2022-12-12T01:20:54.501Z,100376.98
2022-12-12T01:21:26.692Z,100376.98
2022-12-12T01:21:58.950Z,100377.86
2022-12-12T01:22:31.174Z,100375.40
2022-12-12T01:23:03.404Z,100376.17
2022-12-12T01:23:35.586Z,100377.86
2022-12-12T01:24:07.766Z,100377.75
2022-12-12T01:24:39.941Z,100379.53
2022-12-12T01:25:12.418Z,100380.69
2022-12-12T01:25:44.436Z,100380.34
2022-12-12T01:26:16.599Z,100381.27
2022-12-12T01:26:48.771Z,100381.48
2022-12-12T01:27:20.954Z,100382.58
2022-12-12T01:27:53.157Z,100383.23
2022-12-12T01:28:25.441Z,100383.13
2022-12-12T01:28:57.590Z,100384.16
2022-12-12T01:29:29.789Z,100384.92
2022-12-12T01:30:02.015Z,100385.58
2022-12-12T01:30:34.247Z,100385.94
2022-12-12T01:31:06.474Z,100386.67
2022-12-12T01:31:38.680Z,100387.39
2022-12-12T01:32:10.812Z,100385.47
2022-12-12T01:32:43.206Z,100386.67
2022-12-12T01:33:15.365Z,100387.66
2022-12-12T01:33:47.547Z,100388.13
2022-12-12T01:34:19.736Z,100388.30
2022-12-12T01:34:51.948Z,100388.70
2022-12-12T01:35:24.179Z,100387.55
2022-12-12T01:35:56.442Z,100387.72
2022-12-12T01:36:28.611Z,100388.20
2022-12-12T01:37:00.778Z,100387.72
2022-12-12T01:37:32.935Z,100388.95
2022-12-12T01:38:05.115Z,100387.80
2022-12-12T01:38:37.327Z,100387.55
2022-12-12T01:39:09.632Z,100387.44
2022-12-12T01:39:41.828Z,100389.14
2022-12-12T01:40:14.021Z,100388.27
2022-12-12T01:40:46.205Z,100389.58
2022-12-12T01:41:18.472Z,100390.34
2022-12-12T01:41:50.665Z,100390.28
2022-12-12T01:42:22.906Z,100391.50
2022-12-12T01:42:55.125Z,100393.25
2022-12-12T01:43:27.290Z,100393.31
2022-12-12T01:43:59.524Z,100395.55
2022-12-12T01:44:31.722Z,100397.05
2022-12-12T01:45:03.948Z,100396.50
2022-12-12T01:45:36.140Z,100397.86
2022-12-12T01:46:08.379Z,100398.81
2022-12-12T01:46:40.568Z,100400.94
2022-12-12T01:47:12.677Z,100400.66
2022-12-12T01:47:45.034Z,100400.83
2022-12-12T01:48:17.380Z,100400.52
2022-12-12T01:48:49.594Z,100400.80
2022-12-12T01:49:21.833Z,100400.03
2022-12-12T01:49:54.015Z,100401.13
2022-12-12T01:50:26.174Z,100400.73
2022-12-12T01:50:58.341Z,100399.91
2022-12-12T01:51:30.599Z,100399.97
2022-12-12T01:52:02.770Z,100400.19
2022-12-12T01:52:34.947Z,100399.21
2022-12-12T01:53:07.160Z,100400.69
2022-12-12T01:53:39.440Z,100401.65
2022-12-12T01:54:11.599Z,100403.18
2022-12-12T01:54:43.782Z,100404.05
2022-12-12T01:55:15.961Z,100404.42
2022-12-12T01:55:48.171Z,100405.45
2022-12-12T01:56:20.519Z,100404.86
2022-12-12T01:56:52.689Z,100404.64
2022-12-12T01:57:24.866Z,100405.11
2022-12-12T01:57:57.034Z,100404.23
2022-12-12T01:58:29.187Z,100404.20
2022-12-12T01:59:01.346Z,100404.03
2022-12-12T01:59:33.543Z,100404.88
2022-12-12T02:00:05.736Z,100403.30
2022-12-12T02:00:38.103Z,100401.95
2022-12-12T02:01:10.240Z,100401.87
2022-12-12T02:01:42.531Z,100402.21
2022-12-12T02:02:14.722Z,100402.72
2022-12-12T02:02:46.909Z,100403.56
2022-12-12T02:03:19.082Z,100403.69
2022-12-12T02:03:51.362Z,100401.95
2022-12-12T02:04:23.540Z,100403.00
2022-12-12T02:04:55.763Z,100404.33
2022-12-12T02:05:28.042Z,100401.20
2022-12-12T02:06:00.272Z,100401.69
2022-12-12T02:06:32.475Z,100400.55
2022-12-12T02:07:04.730Z,100403.99
2022-12-12T02:07:36.986Z,100402.53
2022-12-12T02:08:09.405Z,100401.95
2022-12-12T02:08:41.617Z,100402.02
2022-12-12T02:09:13.882Z,100401.28
2022-12-12T02:09:46.176Z,100402.75
2022-12-12T02:10:18.466Z,100401.67
2022-12-12T02:10:50.654Z,100401.20
2022-12-12T02:11:22.875Z,100402.83
2022-12-12T02:11:55.070Z,100402.30
2022-12-12T02:12:27.346Z,100403.50
2022-12-12T02:12:59.537Z,100404.83
2022-12-12T02:13:31.811Z,100403.84
2022-12-12T02:14:04.035Z,100404.45
2022-12-12T02:14:36.215Z,100404.13
2022-12-12T02:15:08.385Z,100403.52
2022-12-12T02:15:40.546Z,100404.99
2022-12-12T02:16:12.839Z,100404.02
2022-12-12T02:16:44.964Z,100403.74
2022-12-12T02:17:17.147Z,100402.92
2022-12-12T02:17:49.399Z,100403.47
2022-12-12T02:18:21.535Z,100403.52
2022-12-12T02:18:53.753Z,100402.19
2022-12-12T02:19:25.929Z,100403.23
2022-12-12T02:19:58.103Z,100402.52
2022-12-12T02:20:30.287Z,100403.81
2022-12-12T02:21:02.448Z,100404.97
2022-12-12T02:21:34.684Z,100405.66
2022-12-12T02:22:06.904Z,100404.78
2022-12-12T02:22:39.133Z,100405.97
2022-12-12T02:23:11.321Z,100405.97
2022-12-12T02:23:43.503Z,100406.33
2022-12-12T02:24:15.690Z,100405.80
2022-12-12T02:24:47.964Z,100406.42
2022-12-12T02:25:20.115Z,100406.81
2022-12-12T02:25:52.288Z,100406.58
2022-12-12T02:26:24.520Z,100407.72
2022-12-12T02:26:56.724Z,100409.13
2022-12-12T02:27:28.864Z,100407.38
2022-12-12T02:28:01.041Z,100408.97
2022-12-12T02:28:33.215Z,100406.78
2022-12-12T02:29:05.374Z,100407.59
2022-12-12T02:29:37.613Z,100407.22
2022-12-12T02:30:09.824Z,100406.89
2022-12-12T02:30:42.114Z,100407.38
2022-12-12T02:31:14.362Z,100407.38
2022-12-12T02:31:46.534Z,100407.22
2022-12-12T02:32:18.673Z,100407.93
2022-12-12T02:32:50.857Z,100408.42
2022-12-12T02:33:23.008Z,100408.98
2022-12-12T02:33:55.172Z,100407.29
2022-12-12T02:34:27.318Z,100408.11
2022-12-12T02:34:59.584Z,100406.80
2022-12-12T02:35:31.756Z,100407.72
2022-12-12T02:36:04.003Z,100406.54
2022-12-12T02:36:36.181Z,100407.30
2022-12-12T02:37:08.410Z,100407.63
2022-12-12T02:37:40.586Z,100405.84
2022-12-12T02:38:12.761Z,100406.34
2022-12-12T02:38:44.968Z,100408.56
2022-12-12T02:39:17.139Z,100406.92
2022-12-12T02:39:49.370Z,100408.13
2022-12-12T02:40:21.529Z,100406.94
2022-12-12T02:40:53.722Z,100406.66
2022-12-12T02:41:25.907Z,100405.81
2022-12-12T02:41:58.104Z,100405.86
2022-12-12T02:42:30.280Z,100404.95
2022-12-12T02:43:02.457Z,100403.22
2022-12-12T02:43:34.666Z,100403.81
2022-12-12T02:44:06.897Z,100402.67
2022-12-12T02:44:39.073Z,100404.58
2022-12-12T02:45:11.689Z,100404.15
2022-12-12T02:45:43.497Z,100402.78
2022-12-12T02:46:15.689Z,100405.13
2022-12-12T02:46:47.977Z,100404.09
2022-12-12T02:47:20.092Z,100405.84
2022-12-12T02:47:52.275Z,100406.38
2022-12-12T02:48:24.431Z,100406.56
2022-12-12T02:48:56.590Z,100404.70
2022-12-12T02:49:28.830Z,100405.74
2022-12-12T02:50:00.996Z,100405.31
2022-12-12T02:50:33.203Z,100404.22
2022-12-12T02:51:05.486Z,100403.94
2022-12-12T02:51:37.658Z,100405.25
2022-12-12T02:52:09.901Z,100404.73
2022-12-12T02:52:42.094Z,100404.08
2022-12-12T02:53:14.262Z,100402.67
2022-12-12T02:53:46.432Z,100403.38
2022-12-12T02:54:18.666Z,100405.45
2022-12-12T02:54:50.836Z,100404.61
2022-12-12T02:55:23.021Z,100406.05
2022-12-12T02:55:55.202Z,100407.80
2022-12-12T02:56:27.351Z,100405.58
2022-12-12T02:56:59.690Z,100403.86
2022-12-12T02:57:31.781Z,100405.71
2022-12-12T02:58:04.075Z,100405.71
2022-12-12T02:58:36.273Z,100407.24
2022-12-12T02:59:08.493Z,100404.78
2022-12-12T02:59:40.626Z,100406.05
2022-12-12T03:00:12.780Z,100408.17
2022-12-12T03:00:44.959Z,100409.37
2022-12-12T03:01:17.143Z,100410.02
2022-12-12T03:01:49.351Z,100411.77
2022-12-12T03:02:21.552Z,100411.18
2022-12-12T03:02:53.706Z,100410.66
2022-12-12T03:03:25.934Z,100410.45
2022-12-12T03:03:58.140Z,100410.77
2022-12-12T03:04:30.304Z,100411.66
2022-12-12T03:05:02.475Z,100411.05
2022-12-12T03:05:34.695Z,100411.44
2022-12-12T03:06:06.854Z,100411.85
2022-12-12T03:06:40.962Z,100411.63
2022-12-12T03:07:11.282Z,100411.59
2022-12-12T03:07:43.470Z,100410.69
2022-12-12T03:08:15.641Z,100409.81
2022-12-12T03:08:47.787Z,100410.59
2022-12-12T03:09:19.958Z,100410.02
2022-12-12T03:09:52.687Z,100410.02
2022-12-12T03:10:24.859Z,100409.04
2022-12-12T03:10:57.097Z,100407.17
2022-12-12T03:11:29.294Z,100407.95
2022-12-12T03:12:01.522Z,100408.00
2022-12-12T03:12:33.694Z,100407.34
2022-12-12T03:13:05.858Z,100407.34
2022-12-12T03:13:38.064Z,100405.14
2022-12-12T03:14:10.283Z,100406.28
2022-12-12T03:14:42.472Z,100403.50
2022-12-12T03:15:14.982Z,100403.72
2022-12-12T03:15:46.883Z,100403.88
2022-12-12T03:16:19.148Z,100403.22
2022-12-12T03:16:51.199Z,100402.73
2022-12-12T03:17:23.372Z,100400.28
2022-12-12T03:17:55.615Z,100401.31
2022-12-12T03:18:27.808Z,100400.17
2022-12-12T03:19:00.079Z,100400.17
2022-12-12T03:19:32.192Z,100398.80
2022-12-12T03:20:04.357Z,100398.69
2022-12-12T03:20:36.524Z,100399.67
2022-12-12T03:21:08.714Z,100400.00
2022-12-12T03:21:40.888Z,100400.28
2022-12-12T03:22:13.081Z,100399.40
2022-12-12T03:22:45.261Z,100398.91
2022-12-12T03:23:17.458Z,100398.58
2022-12-12T03:23:49.639Z,100399.95
2022-12-12T03:24:21.861Z,100398.97
2022-12-12T03:24:54.060Z,100399.78
2022-12-12T03:25:26.228Z,100400.11
2022-12-12T03:25:58.400Z,100398.86
2022-12-12T03:26:30.535Z,100398.97
2022-12-12T03:27:02.680Z,100399.07
2022-12-12T03:27:34.828Z,100397.92
2022-12-12T03:28:07.004Z,100398.50
2022-12-12T03:28:39.264Z,100398.50
2022-12-12T03:29:11.428Z,100398.41
2022-12-12T03:29:43.690Z,100398.09
2022-12-12T03:30:15.871Z,100394.89
2022-12-12T03:30:48.055Z,100395.47
2022-12-12T03:31:20.293Z,100394.73
2022-12-12T03:31:52.451Z,100394.21
2022-12-12T03:32:24.632Z,100393.17
2022-12-12T03:32:56.858Z,100392.68
2022-12-12T03:33:29.015Z,100395.30
2022-12-12T03:34:01.173Z,100395.38
2022-12-12T03:34:33.461Z,100393.74
2022-12-12T03:35:05.622Z,100395.55
2022-12-12T03:35:37.789Z,100395.66
2022-12-12T03:36:09.950Z,100395.76
2022-12-12T03:36:42.153Z,100394.77
2022-12-12T03:37:14.340Z,100394.99
2022-12-12T03:37:46.653Z,100394.17
2022-12-12T03:38:18.825Z,100393.78
2022-12-12T03:38:50.985Z,100396.14
2022-12-12T03:39:23.166Z,100396.03
2022-12-12T03:39:55.325Z,100396.36
2022-12-12T03:40:27.513Z,100397.56
2022-12-12T03:40:59.666Z,100396.52
2022-12-12T03:41:32.023Z,100395.65
2022-12-12T03:42:04.191Z,100394.77
2022-12-12T03:42:36.383Z,100396.48
2022-12-12T03:43:09.224Z,100395.88
2022-12-12T03:43:41.379Z,100395.94
2022-12-12T03:44:13.558Z,100394.92
2022-12-12T03:44:45.725Z,100396.45
2022-12-12T03:45:17.908Z,100396.52
2022-12-12T03:45:50.141Z,100396.63
2022-12-12T03:46:22.347Z,100396.73
2022-12-12T03:46:54.499Z,100398.32
2022-12-12T03:47:26.687Z,100398.10
2022-12-12T03:47:58.934Z,100398.38
2022-12-12T03:48:31.181Z,100396.59
2022-12-12T03:49:03.340Z,100396.83
2022-12-12T03:49:35.591Z,100396.66
2022-12-12T03:50:07.783Z,100396.63
2022-12-12T03:50:39.983Z,100396.45
2022-12-12T03:51:12.152Z,100396.64
2022-12-12T03:51:44.347Z,100396.03
2022-12-12T03:52:16.506Z,100396.58
2022-12-12T03:52:48.651Z,100396.38
2022-12-12T03:53:20.827Z,100395.72
2022-12-12T03:53:53.054Z,100396.84
2022-12-12T03:54:25.270Z,100397.05
2022-12-12T03:54:57.419Z,100398.00
2022-12-12T03:55:29.658Z,100401.05
2022-12-12T03:56:01.855Z,100400.34
2022-12-12T03:56:34.150Z,100399.63
2022-12-12T03:57:06.328Z,100399.98
2022-12-12T03:57:38.566Z,100400.96
2022-12-12T03:58:10.740Z,100400.69
2022-12-12T03:58:42.973Z,100399.31
2022-12-12T03:59:15.146Z,100400.32
2022-12-12T03:59:47.291Z,100401.69
2022-12-12T04:00:19.577Z,100400.92
2022-12-12T04:00:51.817Z,100402.08
2022-12-12T04:01:24.070Z,100400.88
2022-12-12T04:01:56.322Z,100403.30
2022-12-12T04:02:28.429Z,100403.90
2022-12-12T04:03:00.701Z,100403.05
2022-12-12T04:03:32.947Z,100402.45
2022-12-12T04:04:05.217Z,100402.67
2022-12-12T04:04:37.379Z,100404.75
2022-12-12T04:05:09.570Z,100404.58
2022-12-12T04:05:41.746Z,100403.95
2022-12-12T04:06:13.914Z,100405.02
2022-12-12T04:06:46.097Z,100404.36
2022-12-12T04:07:18.254Z,100405.27
2022-12-12T04:07:50.486Z,100406.89
2022-12-12T04:08:22.706Z,100405.48
2022-12-12T04:08:54.889Z,100405.43
2022-12-12T04:09:27.044Z,100406.19
2022-12-12T04:09:59.270Z,100406.27
2022-12-12T04:10:31.572Z,100404.86
2022-12-12T04:11:03.772Z,100405.56
2022-12-12T04:11:35.965Z,100406.34
2022-12-12T04:12:08.144Z,100406.99
2022-12-12T04:12:40.385Z,100406.47
2022-12-12T04:13:12.559Z,100406.70
2022-12-12T04:13:44.774Z,100408.06
2022-12-12T04:14:17.033Z,100406.94
2022-12-12T04:14:49.201Z,100406.27
2022-12-12T04:15:21.368Z,100407.60
2022-12-12T04:15:53.527Z,100408.09
2022-12-12T04:16:25.754Z,100406.53
2022-12-12T04:16:57.907Z,100407.45
2022-12-12T04:17:30.010Z,100407.19
2022-12-12T04:18:02.220Z,100407.84
2022-12-12T04:18:34.472Z,100407.44
2022-12-12T04:19:06.643Z,100408.64
2022-12-12T04:19:38.872Z,100408.20
2022-12-12T04:20:10.993Z,100408.26
2022-12-12T04:20:43.218Z,100407.98
2022-12-12T04:21:15.594Z,100408.48
2022-12-12T04:21:47.757Z,100407.60
2022-12-12T04:22:23.312Z,100408.47
2022-12-12T04:22:52.085Z,100408.09
2022-12-12T04:23:24.294Z,100408.48
2022-12-12T04:23:56.475Z,100409.44
2022-12-12T04:24:28.615Z,100408.45
2022-12-12T04:25:00.816Z,100409.61
2022-12-12T04:25:33.023Z,100411.47
2022-12-12T04:26:05.242Z,100412.88
2022-12-12T04:26:37.453Z,100414.90
2022-12-12T04:27:09.667Z,100412.68
2022-12-12T04:27:41.950Z,100415.89
2022-12-12T04:28:14.118Z,100416.63
2022-12-12T04:28:46.290Z,100415.59
2022-12-12T04:29:18.433Z,100415.48
2022-12-12T04:29:50.662Z,100416.14
2022-12-12T04:30:22.862Z,100417.45
2022-12-12T04:30:55.030Z,100417.94
2022-12-12T04:31:27.217Z,100420.10
2022-12-12T04:31:59.465Z,100420.27
2022-12-12T04:32:31.594Z,100421.53
2022-12-12T04:33:03.763Z,100423.27
2022-12-12T04:33:35.949Z,100424.69
2022-12-12T04:34:08.102Z,100423.84
2022-12-12T04:34:40.344Z,100427.33
2022-12-12T04:35:12.833Z,100427.89
2022-12-12T04:35:44.671Z,100431.65
2022-12-12T04:36:16.921Z,100434.06
2022-12-12T04:36:49.217Z,100434.73
2022-12-12T04:37:21.416Z,100436.80
2022-12-12T04:37:53.678Z,100436.95
2022-12-12T04:38:25.837Z,100437.23
2022-12-12T04:38:58.118Z,100436.80
2022-12-12T04:39:30.307Z,100437.52
2022-12-12T04:40:02.500Z,100437.52
2022-12-12T04:40:34.658Z,100438.05
2022-12-12T04:41:06.851Z,100438.69
2022-12-12T04:41:39.033Z,100439.79
2022-12-12T04:42:11.212Z,100440.83
2022-12-12T04:42:43.451Z,100439.98
2022-12-12T04:43:15.808Z,100441.03
2022-12-12T04:43:48.142Z,100442.06
2022-12-12T04:44:20.289Z,100441.70
2022-12-12T04:44:52.454Z,100441.16
2022-12-12T04:45:24.695Z,100441.09
2022-12-12T04:45:56.892Z,100441.80
2022-12-12T04:46:29.060Z,100440.84
2022-12-12T04:47:01.221Z,100440.41
2022-12-12T04:47:33.403Z,100440.13
2022-12-12T04:48:05.594Z,100441.13
2022-12-12T04:48:38.984Z,100442.05
2022-12-12T04:49:09.938Z,100441.40
2022-12-12T04:49:42.215Z,100440.91
2022-12-12T04:50:14.376Z,100442.44
2022-12-12T04:50:46.622Z,100442.59
2022-12-12T04:51:18.861Z,100441.78
2022-12-12T04:51:51.042Z,100443.58
2022-12-12T04:52:23.209Z,100444.95
2022-12-12T04:52:55.394Z,100444.45
2022-12-12T04:53:27.542Z,100443.44
2022-12-12T04:53:59.724Z,100444.03
2022-12-12T04:54:31.973Z,100443.48
2022-12-12T04:55:04.126Z,100442.17
2022-12-12T04:55:36.295Z,100442.61
2022-12-12T04:56:08.467Z,100442.75
2022-12-12T04:56:40.614Z,100442.66
2022-12-12T04:57:12.776Z,100441.93
2022-12-12T04:57:44.919Z,100442.08
2022-12-12T04:58:17.213Z,100442.52
2022-12-12T04:58:49.412Z,100443.66
2022-12-12T04:59:21.581Z,100444.46
2022-12-12T04:59:53.793Z,100444.23
2022-12-12T05:00:26.083Z,100444.81
2022-12-12T05:00:58.359Z,100444.25
2022-12-12T05:01:30.496Z,100445.30
2022-12-12T05:02:02.702Z,100446.09
2022-12-12T05:02:34.955Z,100446.09
2022-12-12T05:03:07.072Z,100445.83
2022-12-12T05:03:39.318Z,100446.84
2022-12-12T05:04:11.560Z,100449.73
2022-12-12T05:04:43.779Z,100448.03
2022-12-12T05:05:16.022Z,100449.67
2022-12-12T05:05:48.158Z,100449.78
2022-12-12T05:06:20.375Z,100449.34
2022-12-12T05:06:52.622Z,100450.56
2022-12-12T05:07:24.791Z,100449.96
2022-12-12T05:07:57.065Z,100448.92
2022-12-12T05:08:29.262Z,100451.16
2022-12-12T05:09:01.380Z,100452.04
2022-12-12T05:09:33.546Z,100452.18
2022-12-12T05:10:05.744Z,100452.18
2022-12-12T05:10:37.921Z,100452.89
2022-12-12T05:11:10.138Z,100449.94
2022-12-12T05:11:42.314Z,100452.08
2022-12-12T05:12:14.491Z,100450.38
2022-12-12T05:12:46.664Z,100449.83
2022-12-12T05:13:18.831Z,100449.02
2022-12-12T05:13:50.987Z,100453.92
2022-12-12T05:14:23.176Z,100450.73
2022-12-12T05:14:55.339Z,100451.98
2022-12-12T05:15:27.508Z,100451.31
2022-12-12T05:15:59.687Z,100453.36
2022-12-12T05:16:31.915Z,100453.08
2022-12-12T05:17:04.152Z,100451.50
2022-12-12T05:17:36.302Z,100450.76
2022-12-12T05:18:08.485Z,100452.39
2022-12-12T05:18:40.660Z,100452.23
2022-12-12T05:19:12.834Z,100450.05
2022-12-12T05:19:44.998Z,100450.72
2022-12-12T05:20:17.305Z,100450.38
2022-12-12T05:20:49.461Z,100450.00
2022-12-12T05:21:21.675Z,100450.45
2022-12-12T05:21:53.867Z,100450.99
2022-12-12T05:22:26.073Z,100451.17
2022-12-12T05:22:58.271Z,100452.05
2022-12-12T05:23:34.482Z,100453.08
2022-12-12T05:24:02.621Z,100452.26
2022-12-12T05:24:34.787Z,100453.75
2022-12-12T05:25:06.977Z,100453.70
2022-12-12T05:25:39.221Z,100453.04
2022-12-12T05:26:11.399Z,100454.30
2022-12-12T05:26:43.569Z,100454.72
2022-12-12T05:27:15.737Z,100454.28
2022-12-12T05:27:47.909Z,100454.66
2022-12-12T05:28:20.114Z,100455.27
2022-12-12T05:28:52.291Z,100453.50
2022-12-12T05:29:24.454Z,100453.95
2022-12-12T05:29:56.633Z,100454.25
2022-12-12T05:30:28.871Z,100454.75
2022-12-12T05:31:01.302Z,100454.75
2022-12-12T05:31:33.281Z,100454.11
2022-12-12T05:32:05.482Z,100454.70
2022-12-12T05:32:37.687Z,100454.48
2022-12-12T05:33:09.842Z,100454.05
2022-12-12T05:33:42.030Z,100454.39
2022-12-12T05:34:14.255Z,100452.48
2022-12-12T05:34:46.446Z,100452.31
2022-12-12T05:35:18.753Z,100452.75
2022-12-12T05:35:51.023Z,100453.08
2022-12-12T05:36:23.218Z,100452.16
2022-12-12T05:36:55.389Z,100452.05
2022-12-12T05:37:27.570Z,100451.92
2022-12-12T05:37:59.756Z,100450.72
2022-12-12T05:38:32.201Z,100451.11
2022-12-12T05:39:04.386Z,100449.85
2022-12-12T05:39:36.568Z,100449.17
2022-12-12T05:40:08.802Z,100449.23
2022-12-12T05:40:41.036Z,100449.22
2022-12-12T05:41:13.217Z,100448.02
2022-12-12T05:41:45.500Z,100449.09
2022-12-12T05:42:17.799Z,100451.31
2022-12-12T05:42:49.983Z,100451.81
2022-12-12T05:43:22.258Z,100451.16
2022-12-12T05:43:54.415Z,100451.00
2022-12-12T05:44:26.661Z,100452.14
2022-12-12T05:44:58.845Z,100450.51
2022-12-12T05:45:31.003Z,100448.87
2022-12-12T05:46:03.240Z,100450.56
2022-12-12T05:46:35.357Z,100450.56
2022-12-12T05:47:07.576Z,100450.00
2022-12-12T05:47:39.791Z,100449.34
2022-12-12T05:48:12.001Z,100449.17
2022-12-12T05:48:44.261Z,100450.55
2022-12-12T05:49:16.470Z,100451.69
2022-12-12T05:49:48.659Z,100450.11
2022-12-12T05:50:20.850Z,100449.23
2022-12-12T05:50:53.092Z,100449.45
2022-12-12T05:51:25.254Z,100450.32
2022-12-12T05:51:57.456Z,100450.28
2022-12-12T05:52:29.592Z,100449.53
2022-12-12T05:53:01.761Z,100449.16
2022-12-12T05:53:42.002Z,100449.53
2022-12-12T05:54:06.236Z,100448.19
2022-12-12T05:54:38.423Z,100448.52
2022-12-12T05:55:10.794Z,100447.97
2022-12-12T05:55:42.806Z,100448.08
2022-12-12T05:56:15.022Z,100448.42
2022-12-12T05:56:47.221Z,100447.16
2022-12-12T05:57:19.593Z,100446.96
2022-12-12T05:57:51.757Z,100447.17
2022-12-12T05:58:23.909Z,100447.72
2022-12-12T05:58:56.195Z,100448.17
2022-12-12T05:59:28.406Z,100448.06
2022-12-12T06:00:00.554Z,100449.44
2022-12-12T06:00:32.820Z,100448.83
2022-12-12T06:01:05.051Z,100450.20
2022-12-12T06:01:37.276Z,100451.13
2022-12-12T06:02:09.514Z,100452.00
2022-12-12T06:02:41.759Z,100452.44
2022-12-12T06:03:13.816Z,100451.95
2022-12-12T06:03:46.134Z,100452.66
2022-12-12T06:04:18.468Z,100454.12
2022-12-12T06:04:50.716Z,100455.11
2022-12-12T06:05:22.997Z,100456.61
2022-12-12T06:05:55.185Z,100456.70
2022-12-12T06:06:27.392Z,100456.33
2022-12-12T06:06:59.599Z,100460.25
2022-12-12T06:07:31.823Z,100459.81